createdAt,value
2022-11-29T00:01:36.683Z,86.56
2022-11-29T00:04:05.042Z,86.76
2022-11-29T00:06:34.352Z,86.85
2022-11-29T00:09:11.882Z,87.01
2022-11-29T00:12:00.228Z,87.00
2022-11-29T00:14:28.295Z,86.94
2022-11-29T00:17:02.767Z,87.48
2022-11-29T00:19:35.290Z,87.41
2022-11-29T00:22:02.774Z,87.23
2022-11-29T00:24:32.645Z,87.47
2022-11-29T00:27:00.733Z,86.77
2022-11-29T00:29:29.571Z,87.19
2022-11-29T00:31:57.180Z,86.70
2022-11-29T00:34:24.419Z,87.01
2022-11-29T00:36:51.964Z,86.80
2022-11-29T00:39:20.080Z,86.80
2022-11-29T00:41:47.363Z,87.31
2022-11-29T00:44:19.887Z,87.06
2022-11-29T00:46:48.779Z,87.42
2022-11-29T00:49:16.953Z,87.01
2022-11-29T00:51:44.464Z,86.97
2022-11-29T00:54:11.771Z,87.33
2022-11-29T00:56:39.800Z,87.38
2022-11-29T00:59:07.196Z,86.94
2022-11-29T01:01:34.638Z,87.28
2022-11-29T01:04:03.259Z,87.16
2022-11-29T01:06:30.937Z,87.40
2022-11-29T01:08:58.461Z,87.42
2022-11-29T01:11:27.923Z,86.92
2022-11-29T01:14:00.437Z,86.59
2022-11-29T01:16:30.650Z,86.81
2022-11-29T01:18:58.337Z,87.36
2022-11-29T01:21:25.819Z,87.07
2022-11-29T01:23:54.987Z,87.16
2022-11-29T01:26:26.440Z,86.55
2022-11-29T01:28:56.149Z,86.73
2022-11-29T01:31:27.615Z,87.05
2022-11-29T01:34:00.561Z,86.38
2022-11-29T01:36:28.648Z,86.75
2022-11-29T01:38:56.514Z,87.54
2022-11-29T01:41:25.926Z,87.30
2022-11-29T01:44:01.686Z,87.15
2022-11-29T01:46:35.000Z,87.31
2022-11-29T01:49:11.053Z,87.22
2022-11-29T01:51:42.391Z,86.43
2022-11-29T01:54:11.390Z,86.47
2022-11-29T01:56:39.340Z,86.55
2022-11-29T01:59:11.498Z,87.40
2022-11-29T02:01:39.619Z,86.84
2022-11-29T02:04:07.834Z,87.29
2022-11-29T02:06:37.229Z,86.21
2022-11-29T02:09:05.793Z,87.33
2022-11-29T02:12:01.265Z,86.91
2022-11-29T02:15:02.430Z,87.38
2022-11-29T02:17:53.147Z,86.57
2022-11-29T02:20:32.438Z,86.93
2022-11-29T02:23:21.509Z,86.77
2022-11-29T02:26:18.263Z,86.40
2022-11-29T02:28:58.338Z,86.17
2022-11-29T02:31:44.778Z,87.10
2022-11-29T02:34:27.754Z,87.17
2022-11-29T02:37:21.120Z,87.02
2022-11-29T02:40:25.807Z,86.41
2022-11-29T02:43:11.264Z,86.69
2022-11-29T02:45:51.660Z,86.14
2022-11-29T02:48:55.940Z,87.22
2022-11-29T02:51:36.697Z,86.80
2022-11-29T02:54:14.517Z,86.93
2022-11-29T02:56:57.095Z,86.37
2022-11-29T02:59:48.091Z,87.42
2022-11-29T03:02:36.798Z,86.69
2022-11-29T03:05:07.061Z,86.74
2022-11-29T03:07:49.439Z,87.14
2022-11-29T03:10:44.111Z,87.08
2022-11-29T03:13:34.104Z,87.04
2022-11-29T03:16:38.408Z,86.69
2022-11-29T03:19:47.767Z,87.18
2022-11-29T03:22:44.419Z,86.91
2022-11-29T03:25:29.189Z,86.54
2022-11-29T03:28:06.643Z,85.83
2022-11-29T03:30:40.128Z,86.53
2022-11-29T03:33:16.656Z,86.17
2022-11-29T03:35:56.314Z,85.87
2022-11-29T03:38:35.448Z,86.68
2022-11-29T03:41:18.803Z,86.74
2022-11-29T03:44:08.539Z,85.97
2022-11-29T03:46:53.173Z,86.71
2022-11-29T03:49:33.536Z,86.49
2022-11-29T03:52:24.240Z,85.89
2022-11-29T03:55:00.884Z,86.02
2022-11-29T03:57:40.582Z,85.93
2022-11-29T04:00:10.991Z,85.99
2022-11-29T04:03:04.261Z,86.11
2022-11-29T04:05:43.811Z,85.25
2022-11-29T04:08:11.211Z,85.15
2022-11-29T04:10:56.978Z,85.82
2022-11-29T04:13:56.885Z,84.76
2022-11-29T04:16:50.877Z,84.81
2022-11-29T04:19:43.220Z,85.45
2022-11-29T04:22:39.885Z,85.96
2022-11-29T04:25:25.524Z,85.13
2022-11-29T04:28:20.772Z,84.54
2022-11-29T04:31:26.832Z,85.45
2022-11-29T04:33:57.285Z,84.66
2022-11-29T04:36:51.786Z,84.55
2022-11-29T04:39:43.826Z,85.84
2022-11-29T04:42:48.180Z,85.78
2022-11-29T04:45:47.138Z,85.46
2022-11-29T04:48:40.039Z,85.25
2022-11-29T04:51:33.946Z,84.45
2022-11-29T04:54:30.867Z,84.80
2022-11-29T04:57:20.964Z,84.87
2022-11-29T04:59:57.529Z,84.34
2022-11-29T05:02:36.924Z,84.37
2022-11-29T05:05:04.620Z,83.75
2022-11-29T05:07:50.639Z,83.90
2022-11-29T05:10:37.052Z,84.82
2022-11-29T05:13:16.425Z,83.55
2022-11-29T05:16:01.581Z,83.21
2022-11-29T05:18:50.012Z,84.60
2022-11-29T05:21:40.542Z,83.45
2022-11-29T05:24:38.724Z,83.07
2022-11-29T05:27:44.228Z,83.34
2022-11-29T05:30:14.671Z,82.93
2022-11-29T05:32:51.279Z,83.15
2022-11-29T05:35:28.064Z,84.20
2022-11-29T05:38:02.900Z,83.83
2022-11-29T05:40:57.993Z,82.69
2022-11-29T05:43:44.547Z,84.54
2022-11-29T05:46:31.180Z,84.43
2022-11-29T05:49:10.601Z,83.28
2022-11-29T05:52:14.243Z,83.73
2022-11-29T05:55:04.620Z,83.45
2022-11-29T05:57:56.040Z,83.13
2022-11-29T06:00:24.968Z,83.05
2022-11-29T06:03:09.770Z,82.94
2022-11-29T06:05:49.856Z,84.02
2022-11-29T06:08:34.575Z,82.91
2022-11-29T06:11:07.149Z,83.96
2022-11-29T06:13:43.091Z,84.20
2022-11-29T06:16:29.154Z,83.93
2022-11-29T06:19:08.633Z,84.13
2022-11-29T06:21:49.099Z,83.34
2022-11-29T06:24:36.144Z,83.62
2022-11-29T06:27:15.239Z,84.25
2022-11-29T06:30:18.459Z,82.74
2022-11-29T06:32:57.807Z,83.07
2022-11-29T06:35:47.235Z,83.45
2022-11-29T06:38:29.977Z,83.28
2022-11-29T06:41:02.222Z,83.36
2022-11-29T06:43:31.120Z,84.09
2022-11-29T06:46:20.885Z,83.76
2022-11-29T06:49:02.285Z,82.53
2022-11-29T06:51:49.917Z,84.11
2022-11-29T06:54:33.231Z,83.02
2022-11-29T06:57:19.154Z,83.36
2022-11-29T07:00:05.025Z,83.01
2022-11-29T07:02:35.448Z,83.45
2022-11-29T07:05:26.098Z,83.96
2022-11-29T07:07:57.261Z,83.07
2022-11-29T07:10:25.642Z,82.88
2022-11-29T07:12:53.818Z,83.00
2022-11-29T07:15:23.111Z,82.39
2022-11-29T07:17:59.686Z,82.51
2022-11-29T07:20:59.918Z,83.07
2022-11-29T07:23:34.470Z,83.46
2022-11-29T07:26:26.380Z,82.81
2022-11-29T07:29:32.718Z,82.34
2022-11-29T07:32:05.901Z,83.87
2022-11-29T07:35:04.714Z,82.19
2022-11-29T07:37:46.895Z,82.80
2022-11-29T07:40:27.045Z,82.81
2022-11-29T07:43:22.255Z,82.38
2022-11-29T07:45:50.187Z,82.38
2022-11-29T07:48:18.486Z,82.00
2022-11-29T07:50:46.307Z,83.13
2022-11-29T07:53:17.889Z,82.81
2022-11-29T07:55:46.210Z,83.14
2022-11-29T07:58:15.909Z,82.26
2022-11-29T08:00:44.857Z,82.04
2022-11-29T08:03:12.749Z,82.07
2022-11-29T08:05:40.865Z,82.35
2022-11-29T08:08:08.659Z,81.60
2022-11-29T08:10:36.290Z,82.05
2022-11-29T08:13:03.920Z,81.45
2022-11-29T08:15:32.048Z,82.03
2022-11-29T08:17:59.385Z,82.64
2022-11-29T08:20:26.592Z,80.73
2022-11-29T08:22:56.207Z,81.42
2022-11-29T08:25:24.846Z,81.73
2022-11-29T08:27:52.584Z,81.48
2022-11-29T08:30:22.729Z,81.06
2022-11-29T08:32:51.919Z,80.96
2022-11-29T08:35:21.110Z,81.55
2022-11-29T08:37:48.843Z,80.95
2022-11-29T08:40:16.663Z,81.66
2022-11-29T08:42:44.321Z,81.57
2022-11-29T08:45:12.505Z,81.63
2022-11-29T08:47:42.382Z,81.32
2022-11-29T08:50:15.981Z,80.72
2022-11-29T08:53:07.222Z,81.40
2022-11-29T08:55:39.760Z,81.26
2022-11-29T08:58:12.949Z,80.68
2022-11-29T09:00:42.772Z,81.11
2022-11-29T09:03:28.771Z,80.21
2022-11-29T09:05:56.426Z,79.88
2022-11-29T09:08:24.152Z,79.93
2022-11-29T09:10:51.510Z,80.14
2022-11-29T09:13:19.524Z,80.56
2022-11-29T09:15:46.964Z,80.07
2022-11-29T09:18:14.279Z,79.51
2022-11-29T09:20:45.521Z,79.31
2022-11-29T09:23:13.534Z,79.29
2022-11-29T09:25:40.849Z,78.86
2022-11-29T09:28:08.954Z,78.54
2022-11-29T09:30:38.334Z,79.05
2022-11-29T09:33:06.086Z,78.84
2022-11-29T09:35:37.177Z,78.98
2022-11-29T09:38:04.782Z,78.39
2022-11-29T09:40:41.683Z,78.62
2022-11-29T09:43:31.028Z,78.31
2022-11-29T09:46:22.883Z,78.74
2022-11-29T09:48:57.825Z,78.02
2022-11-29T09:51:44.168Z,79.24
2022-11-29T09:54:42.454Z,78.07
2022-11-29T09:57:11.314Z,77.92
2022-11-29T09:59:44.016Z,78.38
2022-11-29T10:02:24.963Z,78.60
2022-11-29T10:05:21.062Z,78.29
2022-11-29T10:07:59.250Z,77.74
2022-11-29T10:10:37.946Z,77.95
2022-11-29T10:13:23.843Z,77.94
2022-11-29T10:15:58.113Z,76.78
2022-11-29T10:18:36.668Z,77.59
2022-11-29T10:21:18.223Z,77.69
2022-11-29T10:23:46.057Z,77.68
2022-11-29T10:26:13.991Z,78.09
2022-11-29T10:28:47.910Z,77.64
2022-11-29T10:31:25.173Z,78.09
2022-11-29T10:33:54.613Z,77.90
2022-11-29T10:36:42.914Z,78.17
2022-11-29T10:39:30.730Z,77.13
2022-11-29T10:42:02.676Z,78.00
2022-11-29T10:44:32.456Z,77.58
2022-11-29T10:47:10.530Z,78.14
2022-11-29T10:49:40.697Z,77.10
2022-11-29T10:52:19.689Z,78.10
2022-11-29T10:54:49.030Z,78.08
2022-11-29T10:57:19.883Z,78.92
2022-11-29T11:00:01.143Z,77.69
2022-11-29T11:02:29.032Z,77.45
2022-11-29T11:04:57.089Z,77.75
2022-11-29T11:07:31.177Z,77.63
2022-11-29T11:09:59.645Z,78.49
2022-11-29T11:12:33.364Z,78.18
2022-11-29T11:15:25.250Z,77.47
2022-11-29T11:17:59.902Z,78.40
2022-11-29T11:20:30.677Z,78.08
2022-11-29T11:22:59.608Z,77.88
2022-11-29T11:25:36.014Z,77.60
2022-11-29T11:28:22.771Z,78.26
2022-11-29T11:30:54.373Z,77.83
2022-11-29T11:33:26.197Z,78.64
2022-11-29T11:36:06.680Z,79.19
2022-11-29T11:38:50.617Z,78.80
2022-11-29T11:41:21.188Z,78.15
2022-11-29T11:43:56.687Z,78.33
2022-11-29T11:46:44.686Z,78.81
2022-11-29T11:49:14.295Z,78.62
2022-11-29T11:51:44.165Z,79.64
2022-11-29T11:54:15.700Z,79.14
2022-11-29T11:56:43.867Z,78.49
2022-11-29T11:59:25.229Z,78.62
2022-11-29T12:01:53.017Z,79.26
2022-11-29T12:04:30.703Z,79.42
2022-11-29T12:07:03.598Z,79.21
2022-11-29T12:09:49.351Z,78.49
2022-11-29T12:12:30.278Z,79.40
2022-11-29T12:15:09.011Z,78.56
2022-11-29T12:17:49.775Z,79.11
2022-11-29T12:20:26.871Z,79.65
2022-11-29T12:23:12.717Z,79.45
2022-11-29T12:25:53.551Z,79.73
2022-11-29T12:28:28.541Z,79.37
2022-11-29T12:31:23.640Z,79.66
2022-11-29T12:33:57.184Z,78.97
2022-11-29T12:36:38.915Z,79.97
2022-11-29T12:39:18.456Z,80.21
2022-11-29T12:42:32.936Z,80.00
2022-11-29T12:45:15.812Z,79.94
2022-11-29T12:48:01.820Z,79.67
2022-11-29T12:51:06.522Z,79.52
2022-11-29T12:53:39.872Z,79.57
2022-11-29T12:56:18.060Z,79.83
2022-11-29T12:59:06.999Z,79.57
2022-11-29T13:01:56.420Z,79.96
2022-11-29T13:04:26.768Z,80.08
2022-11-29T13:07:06.794Z,79.62
2022-11-29T13:09:43.091Z,80.21
2022-11-29T13:12:18.798Z,80.62
2022-11-29T13:15:04.053Z,80.06
2022-11-29T13:17:50.409Z,80.05
2022-11-29T13:20:22.100Z,80.41
2022-11-29T13:23:11.928Z,80.46
2022-11-29T13:25:43.520Z,80.60
2022-11-29T13:28:25.667Z,80.46
2022-11-29T13:30:57.313Z,80.72
2022-11-29T13:33:50.210Z,80.75
2022-11-29T13:36:41.881Z,80.60
2022-11-29T13:39:28.364Z,80.97
2022-11-29T13:42:01.860Z,80.25
2022-11-29T13:44:46.252Z,80.58
2022-11-29T13:47:21.665Z,81.03
2022-11-29T13:50:04.846Z,80.74
2022-11-29T13:52:39.040Z,80.62
2022-11-29T13:55:12.870Z,80.86
2022-11-29T13:58:19.247Z,80.55
2022-11-29T14:00:46.825Z,81.18
2022-11-29T14:03:39.863Z,81.05
2022-11-29T14:06:11.976Z,81.09
2022-11-29T14:09:16.656Z,81.46
2022-11-29T14:11:48.839Z,81.46
2022-11-29T14:14:28.306Z,81.02
2022-11-29T14:17:03.150Z,81.33
2022-11-29T14:19:36.371Z,81.07
2022-11-29T14:22:06.501Z,81.47
2022-11-29T14:24:37.295Z,81.33
2022-11-29T14:27:10.359Z,81.47
2022-11-29T14:29:54.434Z,81.63
2022-11-29T14:32:32.649Z,81.66
2022-11-29T14:35:12.710Z,81.57
2022-11-29T14:37:52.207Z,81.65
2022-11-29T14:40:40.865Z,81.32
2022-11-29T14:43:22.417Z,81.26
2022-11-29T14:46:15.140Z,81.64
2022-11-29T14:48:57.487Z,81.66
2022-11-29T14:51:28.183Z,81.39
2022-11-29T14:54:21.969Z,81.51
2022-11-29T14:56:49.392Z,82.04
2022-11-29T14:59:42.749Z,81.26
2022-11-29T15:02:40.726Z,81.69
2022-11-29T15:05:20.440Z,81.52
2022-11-29T15:07:57.734Z,82.26
2022-11-29T15:10:31.003Z,81.82
2022-11-29T15:13:01.012Z,81.84
2022-11-29T15:15:31.564Z,82.29
2022-11-29T15:18:36.082Z,81.50
2022-11-29T15:21:18.592Z,82.15
2022-11-29T15:23:46.212Z,81.76
2022-11-29T15:26:21.362Z,82.59
2022-11-29T15:28:49.017Z,82.50
2022-11-29T15:31:20.485Z,81.86
2022-11-29T15:33:50.151Z,81.92
2022-11-29T15:36:22.931Z,82.81
2022-11-29T15:38:54.090Z,82.62
2022-11-29T15:41:23.466Z,82.17
2022-11-29T15:43:58.051Z,82.66
2022-11-29T15:46:27.804Z,82.87
2022-11-29T15:48:55.842Z,82.67
2022-11-29T15:51:37.906Z,82.53
2022-11-29T15:54:31.307Z,82.30
2022-11-29T15:57:05.845Z,82.87
2022-11-29T15:59:48.200Z,82.10
2022-11-29T16:02:26.334Z,82.24
2022-11-29T16:04:58.260Z,82.45
2022-11-29T16:07:32.625Z,82.80
2022-11-29T16:10:05.182Z,82.72
2022-11-29T16:12:32.837Z,83.20
2022-11-29T16:15:01.475Z,82.87
2022-11-29T16:17:34.295Z,82.66
2022-11-29T16:20:25.817Z,82.56
2022-11-29T16:23:08.615Z,83.63
2022-11-29T16:26:01.413Z,82.52
2022-11-29T16:28:34.491Z,82.58
2022-11-29T16:31:05.009Z,83.66
2022-11-29T16:33:32.727Z,83.49
2022-11-29T16:36:13.803Z,83.04
2022-11-29T16:38:54.355Z,83.17
2022-11-29T16:41:35.272Z,83.09
2022-11-29T16:44:04.914Z,83.70
2022-11-29T16:46:40.683Z,83.17
2022-11-29T16:49:32.642Z,82.69
2022-11-29T16:52:00.882Z,83.41
2022-11-29T16:54:34.536Z,83.54
2022-11-29T16:57:07.195Z,84.08
2022-11-29T16:59:35.493Z,83.91
2022-11-29T17:02:03.085Z,83.87
2022-11-29T17:04:30.556Z,82.95
2022-11-29T17:06:58.125Z,83.03
2022-11-29T17:09:28.972Z,83.71
2022-11-29T17:11:59.937Z,83.36
2022-11-29T17:14:32.369Z,83.43
2022-11-29T17:17:02.502Z,83.38
2022-11-29T17:19:30.660Z,83.71
2022-11-29T17:21:59.070Z,83.01
2022-11-29T17:24:26.685Z,83.04
2022-11-29T17:26:53.939Z,82.92
2022-11-29T17:29:22.098Z,83.66
2022-11-29T17:31:53.497Z,83.99
2022-11-29T17:34:20.936Z,82.96
2022-11-29T17:36:48.895Z,82.91
2022-11-29T17:39:20.067Z,83.18
2022-11-29T17:41:47.777Z,84.32
2022-11-29T17:44:15.616Z,83.12
2022-11-29T17:46:42.852Z,84.21
2022-11-29T17:49:10.994Z,83.26
2022-11-29T17:54:20.354Z,83.76
2022-11-29T17:56:48.015Z,83.64
2022-11-29T17:59:16.404Z,83.96
2022-11-29T18:01:47.256Z,83.06
2022-11-29T18:04:15.768Z,83.79
2022-11-29T18:06:43.768Z,83.87
2022-11-29T18:09:11.601Z,83.89
2022-11-29T18:11:47.368Z,83.55
2022-11-29T18:14:23.026Z,83.81
2022-11-29T18:16:51.469Z,84.20
2022-11-29T18:19:22.882Z,83.81
2022-11-29T18:21:51.053Z,83.76
2022-11-29T18:24:18.493Z,83.69
2022-11-29T18:26:46.744Z,83.28
2022-11-29T18:29:14.464Z,83.26
2022-11-29T18:31:45.112Z,83.18
2022-11-29T18:34:14.502Z,83.27
2022-11-29T18:36:44.740Z,83.36
2022-11-29T18:39:15.089Z,83.75
2022-11-29T18:41:44.529Z,83.69
2022-11-29T18:44:14.079Z,83.93
2022-11-29T18:46:44.031Z,83.50
2022-11-29T18:49:16.350Z,83.66
2022-11-29T18:51:45.649Z,83.49
2022-11-29T18:54:15.346Z,83.42
2022-11-29T18:56:43.473Z,84.09
2022-11-29T18:59:17.737Z,83.50
2022-11-29T19:01:47.723Z,83.57
2022-11-29T19:04:18.807Z,84.24
2022-11-29T19:06:46.378Z,83.91
2022-11-29T19:09:16.693Z,84.14
2022-11-29T19:11:44.756Z,83.49
2022-11-29T19:14:14.228Z,83.61
2022-11-29T19:16:44.920Z,83.88
2022-11-29T19:19:14.061Z,83.59
2022-11-29T19:21:41.758Z,83.66
2022-11-29T19:24:16.000Z,84.05
2022-11-29T19:26:46.962Z,84.19
2022-11-29T19:29:15.465Z,83.58
2022-11-29T19:31:43.667Z,83.57
2022-11-29T19:34:11.628Z,83.80
2022-11-29T19:36:43.904Z,84.29
2022-11-29T19:39:14.972Z,83.81
2022-11-29T19:41:47.739Z,84.61
2022-11-29T19:44:15.468Z,84.04
2022-11-29T19:46:46.355Z,84.28
2022-11-29T19:49:13.919Z,84.52
2022-11-29T19:51:41.614Z,83.95
2022-11-29T19:54:10.836Z,83.47
2022-11-29T19:56:39.063Z,83.29
2022-11-29T19:59:07.732Z,83.81
2022-11-29T20:01:43.643Z,83.80
2022-11-29T20:04:12.715Z,84.95
2022-11-29T20:06:42.023Z,84.14
2022-11-29T20:09:10.174Z,84.34
2022-11-29T20:11:37.730Z,84.47
2022-11-29T20:14:07.912Z,84.64
2022-11-29T20:16:38.141Z,83.59
2022-11-29T20:19:14.896Z,84.02
2022-11-29T20:21:48.033Z,84.41
2022-11-29T20:24:16.772Z,83.89
2022-11-29T20:26:47.469Z,83.94
2022-11-29T20:29:15.611Z,83.50
2022-11-29T20:31:50.223Z,83.86
2022-11-29T20:34:19.394Z,83.92
2022-11-29T20:36:52.868Z,83.63
2022-11-29T20:39:42.345Z,83.80
2022-11-29T20:42:32.382Z,84.45
2022-11-29T20:45:01.795Z,83.70
2022-11-29T20:47:47.715Z,84.16
2022-11-29T20:50:27.579Z,83.47
2022-11-29T20:53:19.436Z,83.36
2022-11-29T20:55:48.585Z,84.48
2022-11-29T20:58:17.013Z,83.88
2022-11-29T21:00:44.793Z,84.33
2022-11-29T21:03:19.157Z,83.57
2022-11-29T21:05:47.843Z,84.63
2022-11-29T21:08:16.991Z,84.52
2022-11-29T21:10:45.746Z,84.32
2022-11-29T21:13:14.197Z,83.86
2022-11-29T21:15:42.184Z,83.54
2022-11-29T21:18:27.696Z,83.27
2022-11-29T21:21:04.061Z,83.50
2022-11-29T21:23:34.419Z,83.64
2022-11-29T21:26:10.355Z,84.91
2022-11-29T21:28:47.257Z,83.90
2022-11-29T21:31:18.085Z,83.56
2022-11-29T21:33:45.898Z,84.58
2022-11-29T21:36:13.930Z,83.81
2022-11-29T21:38:41.744Z,83.93
2022-11-29T21:41:09.592Z,83.67
2022-11-29T21:44:04.926Z,84.68
2022-11-29T21:46:26.516Z,84.64
2022-11-29T21:48:54.680Z,84.36
2022-11-29T21:51:22.088Z,83.89
2022-11-29T21:53:49.492Z,83.91
2022-11-29T21:56:17.406Z,84.19
2022-11-29T21:58:44.904Z,84.10
2022-11-29T22:01:18.200Z,84.00
2022-11-29T22:03:46.234Z,84.75
2022-11-29T22:06:18.678Z,83.67
2022-11-29T22:08:47.827Z,83.84
2022-11-29T22:11:30.900Z,84.67
2022-11-29T22:14:15.415Z,83.85
2022-11-29T22:16:48.265Z,83.24
2022-11-29T22:19:21.267Z,84.26
2022-11-29T22:21:51.605Z,84.10
2022-11-29T22:24:21.625Z,83.21
2022-11-29T22:26:52.557Z,83.92
2022-11-29T22:29:20.139Z,83.96
2022-11-29T22:31:49.477Z,83.25
2022-11-29T22:34:17.572Z,83.90
2022-11-29T22:36:45.767Z,83.64
2022-11-29T22:39:13.443Z,83.64
2022-11-29T22:41:41.565Z,83.91
2022-11-29T22:44:09.142Z,83.94
2022-11-29T22:46:41.375Z,83.83
2022-11-29T22:49:30.401Z,83.43
2022-11-29T22:51:57.813Z,83.53
2022-11-29T22:54:25.568Z,84.54
2022-11-29T22:56:53.266Z,84.77
2022-11-29T22:59:20.545Z,83.81
2022-11-29T23:01:48.231Z,83.33
2022-11-29T23:04:16.311Z,83.47
2022-11-29T23:06:45.757Z,83.83
2022-11-29T23:09:16.720Z,84.25
2022-11-29T23:11:46.244Z,83.13
2022-11-29T23:14:13.914Z,84.30
2022-11-29T23:16:41.602Z,84.30
2022-11-29T23:19:09.449Z,84.15
2022-11-29T23:21:40.111Z,84.24
2022-11-29T23:24:07.547Z,84.73
2022-11-29T23:26:40.257Z,84.50
2022-11-29T23:29:10.904Z,83.65
2022-11-29T23:31:38.893Z,83.57
2022-11-29T23:34:06.927Z,83.17
2022-11-29T23:36:35.015Z,83.64
2022-11-29T23:39:06.816Z,83.28
2022-11-29T23:41:36.176Z,84.22
2022-11-29T23:44:07.236Z,84.92
2022-11-29T23:46:35.145Z,84.11
2022-11-29T23:49:02.790Z,84.09
2022-11-29T23:51:30.757Z,83.30
2022-11-29T23:53:58.027Z,83.62
2022-11-29T23:56:25.804Z,84.26
2022-11-29T23:58:53.425Z,83.96
